Time;durP1;ratioP1;P1;durP2;ratioP2;P2;SDS_P1;SDS_P2;PMS_P1;PMS_P2;Temp;Humidity;BMP_temperature;BMP_pressure;BME280_temperature;BME280_humidity;BME280_pressure;Samples;Min_cycle;Max_cycle;Signal;HPM_P1;HPM_P2
2023/06/26 00:00:47;;;;;;;5.03;3.33;;;;;;;22.70;99.83;101102.50;6250717;28;20618;-72
2023/06/26 00:03:48;;;;;;;3.78;3.38;;;;;;;22.72;99.22;101091.66;6251525;28;20481;-72
2023/06/26 00:06:49;;;;;;;5.80;3.85;;;;;;;22.70;99.34;101091.78;6251520;28;20045;-72
2023/06/26 00:09:52;;;;;;;4.07;3.08;;;;;;;22.68;99.92;101090.28;6250956;28;20127;-72
2023/06/26 00:12:53;;;;;;;4.35;3.40;;;;;;;22.59;100.00;101089.34;6250761;28;20465;-72
2023/06/26 00:15:55;;;;;;;4.95;3.65;;;;;;;22.51;99.96;101089.25;6251079;28;20050;-72
2023/06/26 00:18:56;;;;;;;5.38;3.33;;;;;;;22.51;100.00;101079.38;6251390;28;20053;-72
2023/06/26 00:21:57;;;;;;;5.00;3.38;;;;;;;22.48;100.00;101082.38;6250037;28;20048;-72
2023/06/26 00:25:00;;;;;;;4.40;3.50;;;;;;;22.46;100.00;101084.34;6250156;28;20057;-72
2023/06/26 00:28:02;;;;;;;5.88;3.35;;;;;;;22.43;100.00;101089.16;6251225;28;20050;-72
2023/06/26 00:31:03;;;;;;;4.90;3.50;;;;;;;22.41;100.00;101088.47;6250359;28;20056;-72
2023/06/26 00:34:05;;;;;;;4.30;3.10;;;;;;;22.42;99.89;101087.47;6250719;28;20054;-72
2023/06/26 00:37:06;;;;;;;6.40;3.60;;;;;;;22.41;99.06;101081.28;6250948;28;20052;-72
2023/06/26 00:40:10;;;;;;;5.22;3.45;;;;;;;22.38;97.91;101080.75;6250639;28;20049;-72
2023/06/26 00:43:11;;;;;;;5.20;3.50;;;;;;;22.36;99.23;101077.38;6250211;28;20053;-72
2023/06/26 00:46:15;;;;;;;5.53;3.58;;;;;;;22.34;100.00;101084.72;6250574;28;20049;-72
2023/06/26 00:49:16;;;;;;;7.65;3.47;;;;;;;22.29;99.77;101071.78;6250868;28;20048;-72
2023/06/26 00:52:18;;;;;;;6.18;3.72;;;;;;;22.26;99.80;101075.59;6249494;28;20049;-72
2023/06/26 00:55:21;;;;;;;5.50;3.53;;;;;;;22.26;100.00;101066.72;6250941;28;20053;-72
2023/06/26 00:58:24;;;;;;;4.00;3.45;;;;;;;22.21;100.00;101064.50;6250732;28;20056;-72
2023/06/26 01:01:25;;;;;;;5.30;3.70;;;;;;;22.16;100.00;101060.56;6249987;28;20057;-72
2023/06/26 01:04:27;;;;;;;6.88;3.40;;;;;;;22.13;100.00;101058.22;6250482;28;20076;-72
2023/06/26 01:07:28;;;;;;;7.10;3.72;;;;;;;22.06;100.00;101059.75;6250326;28;20392;-72
2023/06/26 01:10:31;;;;;;;5.70;3.95;;;;;;;22.00;100.00;101056.69;6249721;28;20435;-72
2023/06/26 01:13:35;;;;;;;5.55;3.17;;;;;;;22.00;100.00;101056.69;6250217;28;20056;-72
2023/06/26 01:16:38;;;;;;;8.30;4.00;;;;;;;21.98;100.00;101050.66;6250419;28;20056;-72
2023/06/26 01:19:40;;;;;;;6.93;3.90;;;;;;;21.94;100.00;101043.91;6250160;28;20049;-72
2023/06/26 01:22:50;;;;;;;5.40;3.92;;;;;;;21.91;100.00;101036.16;6249574;28;20335;-72
2023/06/26 01:26:12;;;;;;;5.45;3.80;;;;;;;21.87;100.00;101032.09;6250139;28;20050;-72
2023/06/26 01:29:15;;;;;;;5.88;3.42;;;;;;;21.84;100.00;101032.38;6250538;28;20052;-72
2023/06/26 01:32:17;;;;;;;4.72;3.67;;;;;;;21.79;100.00;101030.16;6252343;28;20042;-72
2023/06/26 01:35:19;;;;;;;4.75;3.50;;;;;;;21.76;100.00;101027.78;6255045;28;20049;-72
2023/06/26 01:38:23;;;;;;;6.10;3.55;;;;;;;21.73;100.00;101019.22;6254832;28;20453;-72
2023/06/26 01:41:26;;;;;;;6.00;4.25;;;;;;;21.71;100.00;101015.81;6254045;28;20136;-72
2023/06/26 01:44:29;;;;;;;4.97;3.67;;;;;;;21.71;100.00;101011.34;6254518;28;20395;-72
2023/06/26 01:47:35;;;;;;;7.28;3.92;;;;;;;21.66;100.00;101010.91;6254659;28;20046;-72
2023/06/26 01:50:38;;;;;;;6.65;4.10;;;;;;;21.62;100.00;101006.00;6253981;28;20054;-72
2023/06/26 01:53:45;;;;;;;5.78;4.05;;;;;;;21.62;100.00;101006.88;6254406;28;20060;-72
2023/06/26 01:56:50;;;;;;;4.43;3.17;;;;;;;21.63;100.00;101013.06;6254531;28;20050;-72
2023/06/26 01:59:53;;;;;;;6.05;4.20;;;;;;;21.61;100.00;101007.84;6254563;28;20045;-72
2023/06/26 02:02:54;;;;;;;4.85;3.55;;;;;;;21.59;100.00;101004.47;6253692;28;20129;-72
2023/06/26 02:05:56;;;;;;;5.93;3.75;;;;;;;21.55;100.00;101003.09;6254105;28;20370;-72
2023/06/26 02:08:57;;;;;;;4.95;3.45;;;;;;;21.52;100.00;100998.03;6254271;28;20060;-72
2023/06/26 02:12:00;;;;;;;6.18;3.85;;;;;;;21.49;100.00;100999.19;6253512;28;20049;-72
2023/06/26 02:15:01;;;;;;;5.35;3.40;;;;;;;21.47;100.00;100990.44;6254137;28;20465;-72
2023/06/26 02:18:02;;;;;;;5.88;3.35;;;;;;;21.46;100.00;100987.91;6254014;28;20049;-72
2023/06/26 02:21:05;;;;;;;4.93;3.58;;;;;;;21.42;100.00;100986.53;6253169;28;20041;-72
2023/06/26 02:24:07;;;;;;;7.50;3.47;;;;;;;21.40;100.00;100985.84;6253700;28;20092;-72
2023/06/26 02:27:10;;;;;;;4.80;3.33;;;;;;;21.36;100.00;100979.94;6253916;28;20045;-72
2023/06/26 02:30:11;;;;;;;4.47;3.42;;;;;;;21.36;100.00;100981.78;6253723;28;20064;-72
2023/06/26 02:33:13;;;;;;;6.05;3.78;;;;;;;21.36;100.00;100974.59;6253136;28;20049;-72
2023/06/26 02:36:14;;;;;;;6.45;3.72;;;;;;;21.36;100.00;100977.28;6253653;28;20053;-72
2023/06/26 02:39:15;;;;;;;6.57;3.70;;;;;;;21.34;100.00;100978.38;6253477;28;20335;-72
2023/06/26 02:42:18;;;;;;;6.15;3.47;;;;;;;21.29;100.00;100968.94;6251837;28;20477;-72
2023/06/26 02:45:20;;;;;;;7.30;3.55;;;;;;;21.26;100.00;100968.41;6249887;28;20061;-72
2023/06/26 02:48:21;;;;;;;6.07;4.07;;;;;;;21.21;100.00;100963.50;6253210;28;20049;-72
2023/06/26 02:51:22;;;;;;;5.25;3.33;;;;;;;21.19;100.00;100961.94;6258590;28;20048;-72
2023/06/26 02:54:24;;;;;;;6.53;4.00;;;;;;;21.16;100.00;100963.06;6259400;28;20056;-72
2023/06/26 02:57:26;;;;;;;5.85;3.58;;;;;;;21.15;100.00;100955.19;6252882;28;20053;-72
2023/06/26 03:00:29;;;;;;;5.30;3.33;;;;;;;21.15;100.00;100947.19;6251639;28;20057;-72
2023/06/26 03:03:40;;;;;;;7.00;3.85;;;;;;;21.15;100.00;100948.03;6252582;28;20049;-72
2023/06/26 03:06:41;;;;;;;6.00;3.75;;;;;;;21.12;100.00;100951.00;6252571;28;20049;-72
2023/06/26 03:09:42;;;;;;;4.88;3.40;;;;;;;21.11;100.00;100951.13;6252508;28;20350;-72
2023/06/26 03:12:45;;;;;;;4.50;3.20;;;;;;;21.09;100.00;100953.13;6251778;28;20053;-72
2023/06/26 03:15:47;;;;;;;5.35;3.38;;;;;;;21.08;100.00;100946.94;6252401;28;20060;-72
2023/06/26 03:18:48;;;;;;;8.18;3.53;;;;;;;21.05;100.00;100951.72;6252219;28;20364;-72
2023/06/26 03:21:49;;;;;;;6.93;3.47;;;;;;;21.02;100.00;100948.34;6261693;28;20052;-72
2023/06/26 03:24:51;;;;;;;5.70;3.65;;;;;;;20.98;100.00;100941.63;6276738;28;20053;-72
2023/06/26 03:27:53;;;;;;;6.45;3.33;;;;;;;20.97;100.00;100947.94;6276964;28;20076;-72
2023/06/26 03:30:55;;;;;;;5.63;3.45;;;;;;;20.94;100.00;100947.41;6276379;28;20052;-72
2023/06/26 03:33:56;;;;;;;5.57;3.75;;;;;;;20.93;100.00;100943.84;6276808;28;20059;-72
2023/06/26 03:36:57;;;;;;;7.07;3.70;;;;;;;20.93;100.00;100935.84;6276668;28;20048;-72
2023/06/26 03:39:59;;;;;;;6.22;3.97;;;;;;;20.93;100.00;100935.84;6273126;28;20057;-72
2023/06/26 03:43:01;;;;;;;6.95;3.53;;;;;;;20.92;100.00;100934.16;6249734;28;20057;-72
2023/06/26 03:46:03;;;;;;;5.18;3.55;;;;;;;20.89;100.00;100934.47;6232241;28;20042;-72
2023/06/26 03:49:04;;;;;;;5.15;3.63;;;;;;;20.91;100.00;100919.13;6230096;28;20583;-72
2023/06/26 03:52:06;;;;;;;5.03;3.67;;;;;;;20.91;100.00;100920.97;6229781;28;20530;-72
2023/06/26 03:55:08;;;;;;;6.00;3.80;;;;;;;20.88;100.00;100922.06;6229345;28;20049;-72
2023/06/26 03:58:11;;;;;;;4.75;3.10;;;;;;;20.88;100.00;100924.75;6234703;28;20052;-72
2023/06/26 04:01:12;;;;;;;4.30;3.28;;;;;;;20.85;100.00;100914.38;6230112;28;20172;-72
2023/06/26 04:04:14;;;;;;;5.80;3.95;;;;;;;20.87;100.00;100916.88;6232561;28;20057;-72
2023/06/26 04:07:15;;;;;;;11.02;6.35;;;;;;;20.88;100.00;100910.56;6230275;28;20601;-72
2023/06/26 04:10:16;;;;;;;11.82;5.97;;;;;;;20.94;100.00;100912.66;6230474;28;20052;-72
2023/06/26 04:13:19;;;;;;;8.57;5.03;;;;;;;20.92;100.00;100909.28;6230434;28;20042;-72
2023/06/26 04:16:24;;;;;;;5.38;3.95;;;;;;;20.88;100.00;100906.03;6231706;28;20056;-72
2023/06/26 04:19:26;;;;;;;6.63;4.07;;;;;;;20.89;100.00;100907.75;6234841;28;20099;-72
2023/06/26 04:22:27;;;;;;;5.05;3.70;;;;;;;20.92;100.00;100899.44;6232040;28;20050;-72
2023/06/26 04:25:29;;;;;;;7.05;3.92;;;;;;;20.90;100.00;100901.41;6233766;28;20045;-72
2023/06/26 04:28:31;;;;;;;5.15;3.55;;;;;;;20.92;100.00;100891.41;6230713;28;20202;-72
2023/06/26 04:31:33;;;;;;;5.03;3.00;;;;;;;20.92;100.00;100891.41;6229706;28;20506;-71
2023/06/26 04:34:36;;;;;;;6.90;3.63;;;;;;;20.95;100.00;100892.97;6230942;28;20619;-72
2023/06/26 04:37:38;;;;;;;9.20;3.28;;;;;;;20.96;100.00;100895.47;6230540;28;20055;-72
2023/06/26 04:40:40;;;;;;;4.72;3.25;;;;;;;20.95;100.00;100895.63;6228733;28;20203;-72
2023/06/26 04:43:42;;;;;;;4.47;3.38;;;;;;;20.96;100.00;100892.81;6239162;28;20045;-72
2023/06/26 04:46:44;;;;;;;4.70;3.35;;;;;;;21.03;100.00;100885.06;6250813;28;20046;-72
2023/06/26 04:49:46;;;;;;;9.27;4.95;;;;;;;21.04;100.00;100886.75;6250604;28;20068;-72
2023/06/26 04:52:47;;;;;;;6.78;3.35;;;;;;;21.06;100.00;100883.91;6249586;28;20448;-72
2023/06/26 04:55:48;;;;;;;5.15;3.30;;;;;;;21.16;100.00;100882.03;6250325;28;20056;-72
2023/06/26 04:58:51;;;;;;;5.88;3.00;;;;;;;21.15;100.00;100873.19;6250175;28;20350;-72
2023/06/26 05:01:53;;;;;;;5.15;3.08;;;;;;;21.19;100.00;100879.94;6249822;28;20042;-72
2023/06/26 05:04:54;;;;;;;5.28;3.40;;;;;;;21.27;100.00;100879.19;6250116;28;20132;-72
2023/06/26 05:07:56;;;;;;;4.60;2.70;;;;;;;21.32;100.00;100878.78;6254004;28;20049;-72
2023/06/26 05:10:58;;;;;;;4.25;2.83;;;;;;;21.34;100.00;100874.97;6254516;28;20049;-72
2023/06/26 05:14:01;;;;;;;5.10;3.13;;;;;;;21.37;100.00;100879.19;6266680;28;20182;-72
2023/06/26 05:17:02;;;;;;;4.78;3.15;;;;;;;21.38;100.00;100878.19;6279866;28;20052;-72
2023/06/26 05:20:05;;;;;;;3.67;2.88;;;;;;;21.42;100.00;100871.56;6279794;28;20433;-71
2023/06/26 05:23:06;;;;;;;5.65;3.50;;;;;;;21.43;100.00;100866.03;6279078;28;20045;-72
2023/06/26 05:26:08;;;;;;;7.20;4.28;;;;;;;21.43;100.00;100878.56;6279435;28;20049;-71
2023/06/26 05:29:11;;;;;;;6.47;3.72;;;;;;;21.45;100.00;100880.13;6266994;28;20056;-71
2023/06/26 05:32:17;;;;;;;6.00;3.45;;;;;;;21.45;100.00;100874.78;6254070;28;20049;-71
2023/06/26 05:35:19;;;;;;;5.28;3.28;;;;;;;21.46;100.00;100862.25;6254965;28;20107;-72
2023/06/26 05:38:21;;;;;;;3.75;2.88;;;;;;;21.48;100.00;100865.59;6254775;28;20361;-72
2023/06/26 05:41:23;;;;;;;4.57;2.90;;;;;;;21.45;100.00;100863.25;6254145;28;20057;-72
2023/06/26 05:44:26;;;;;;;6.22;3.28;;;;;;;21.43;100.00;100862.53;6254222;28;20057;-72
2023/06/26 05:47:27;;;;;;;4.63;3.33;;;;;;;21.43;100.00;100863.38;6254718;28;20057;-72
2023/06/26 05:50:29;;;;;;;4.85;3.28;;;;;;;21.48;100.00;100860.25;6253941;28;20056;-72
2023/06/26 05:53:31;;;;;;;7.40;3.78;;;;;;;21.53;100.00;100850.81;6254175;28;20366;-71
2023/06/26 05:56:33;;;;;;;5.85;3.30;;;;;;;21.59;100.00;100854.72;6254291;28;20049;-72
2023/06/26 05:59:37;;;;;;;5.30;3.38;;;;;;;21.69;99.79;100849.28;6254098;28;20049;-72
2023/06/26 06:02:39;;;;;;;4.97;3.13;;;;;;;21.81;97.70;100863.31;6245792;28;20048;-72
2023/06/26 06:05:40;;;;;;;5.90;3.10;;;;;;;21.88;96.82;100854.50;6253848;28;20449;-72
2023/06/26 06:08:42;;;;;;;5.40;3.17;;;;;;;21.98;93.94;100847.25;6254083;28;20053;-72
2023/06/26 06:11:43;;;;;;;4.72;2.97;;;;;;;22.09;94.05;100854.19;6253007;28;20449;-72
2023/06/26 06:14:46;;;;;;;5.20;3.20;;;;;;;22.11;94.65;100854.88;6254001;28;20046;-71
2023/06/26 06:17:47;;;;;;;5.80;3.15;;;;;;;22.20;94.40;100851.28;6253426;28;20330;-72
2023/06/26 06:20:49;;;;;;;5.78;3.38;;;;;;;22.25;90.27;100849.00;6263235;28;20060;-72
2023/06/26 06:23:50;;;;;;;5.63;3.63;;;;;;;22.29;88.78;100846.84;6278307;28;20072;-71
2023/06/26 06:26:52;;;;;;;6.38;3.45;;;;;;;22.35;87.92;100864.16;6278596;28;20048;-72
2023/06/26 06:29:54;;;;;;;5.88;3.28;;;;;;;22.38;88.57;100864.66;6278219;28;20331;-71
2023/06/26 06:32:56;;;;;;;4.20;3.00;;;;;;;22.44;88.74;100861.38;6258087;28;20081;-72
2023/06/26 06:35:57;;;;;;;5.63;3.47;;;;;;;22.50;86.25;100866.09;6253344;28;20056;-72
2023/06/26 06:38:58;;;;;;;4.78;3.13;;;;;;;22.71;84.31;100857.72;6253244;28;20057;-72
2023/06/26 06:41:59;;;;;;;5.88;3.35;;;;;;;22.82;83.23;100861.13;6255610;28;20041;-72
2023/06/26 06:45:03;;;;;;;5.78;3.28;;;;;;;22.93;81.88;100860.88;6277755;28;20049;-72
2023/06/26 06:48:05;;;;;;;5.68;3.55;;;;;;;23.02;80.27;100866.09;6277786;28;20072;-73
2023/06/26 06:51:06;;;;;;;5.20;3.22;;;;;;;23.10;80.94;100862.63;6277140;28;20060;-72
2023/06/26 06:54:07;;;;;;;5.90;3.75;;;;;;;23.22;79.25;100869.41;6277782;28;20056;-74
2023/06/26 06:57:09;;;;;;;4.97;3.30;;;;;;;23.28;79.00;100857.19;6277712;28;20064;-72
2023/06/26 07:00:14;;;;;;;5.97;4.18;;;;;;;23.31;78.52;100854.19;6277882;28;20049;-72
2023/06/26 07:03:16;;;;;;;7.53;2.92;;;;;;;23.33;80.72;100846.81;6276972;28;20174;-72
2023/06/26 07:06:17;;;;;;;6.15;4.10;;;;;;;23.32;81.27;100861.22;6277453;28;20045;-72
2023/06/26 07:09:18;;;;;;;5.63;3.38;;;;;;;23.46;78.85;100857.09;6255248;28;20057;-72
2023/06/26 07:12:20;;;;;;;5.45;3.53;;;;;;;23.48;78.61;100858.63;6251825;28;20467;-73
2023/06/26 07:15:22;;;;;;;6.78;3.33;;;;;;;23.53;78.01;100855.44;6258876;28;20053;-72
2023/06/26 07:18:24;;;;;;;4.45;3.42;;;;;;;23.54;78.17;100857.94;6277132;28;20049;-72
2023/06/26 07:21:25;;;;;;;5.68;3.55;;;;;;;23.57;78.25;100858.63;6276528;28;20059;-73
2023/06/26 07:24:26;;;;;;;5.82;3.60;;;;;;;23.57;79.19;100850.56;6277054;28;20359;-72
2023/06/26 07:27:28;;;;;;;6.28;3.60;;;;;;;23.59;79.11;100849.41;6277107;28;20045;-72
2023/06/26 07:30:30;;;;;;;6.20;3.20;;;;;;;23.53;80.71;100847.41;6275348;28;20059;-72
2023/06/26 07:33:31;;;;;;;5.78;3.47;;;;;;;23.50;80.68;100848.53;6276862;28;20456;-72
2023/06/26 07:36:33;;;;;;;6.60;3.17;;;;;;;23.51;79.00;100850.22;6276721;28;20049;-72
2023/06/26 07:39:34;;;;;;;5.90;3.38;;;;;;;23.53;79.95;100863.50;6276586;28;20060;-72
2023/06/26 07:42:35;;;;;;;4.72;3.30;;;;;;;23.68;78.12;100871.78;6275661;28;20361;-73
2023/06/26 07:45:38;;;;;;;8.65;4.65;;;;;;;23.80;76.71;100873.16;6243557;28;20053;-72
2023/06/26 07:48:39;;;;;;;6.32;3.97;;;;;;;23.95;77.83;100870.66;6251671;28;20358;-72
2023/06/26 07:51:41;;;;;;;6.90;3.92;;;;;;;24.05;77.21;100868.63;6250964;28;20053;-72
2023/06/26 07:54:42;;;;;;;8.57;4.05;;;;;;;24.19;76.10;100873.34;6251581;28;20045;-73
2023/06/26 07:57:45;;;;;;;13.93;4.50;;;;;;;24.19;76.34;100865.28;6251412;28;20053;-72
2023/06/26 08:00:48;;;;;;;6.05;3.83;;;;;;;24.27;74.89;100875.19;6250886;28;20490;-73
2023/06/26 08:03:49;;;;;;;5.70;3.97;;;;;;;24.36;73.12;100866.13;6251277;28;20056;-74
2023/06/26 08:06:52;;;;;;;5.47;3.80;;;;;;;24.40;74.99;100888.16;6253584;28;20057;-73
2023/06/26 08:09:53;;;;;;;7.88;3.95;;;;;;;24.43;75.11;100901.25;6276008;28;20052;-73
2023/06/26 08:12:55;;;;;;;5.20;3.80;;;;;;;24.46;75.59;100908.97;6275197;28;20045;-73
2023/06/26 08:15:58;;;;;;;5.88;4.07;;;;;;;24.38;77.70;100908.97;6275825;28;20109;-72
2023/06/26 08:18:59;;;;;;;7.85;4.50;;;;;;;24.45;78.45;100910.00;6275609;28;20469;-76
2023/06/26 08:22:00;;;;;;;11.48;4.70;;;;;;;24.44;78.46;100917.22;6275032;28;20041;-74
2023/06/26 08:25:03;;;;;;;11.15;4.30;;;;;;;24.45;79.40;100916.19;6274432;28;20041;-73
2023/06/26 08:28:05;;;;;;;10.77;4.78;;;;;;;24.45;77.21;100923.41;6275468;28;20053;-71
2023/06/26 08:31:07;;;;;;;9.35;4.95;;;;;;;24.42;77.46;100924.59;6274862;28;20063;-73
2023/06/26 08:34:09;;;;;;;6.32;4.68;;;;;;;24.47;76.13;100926.78;6275273;28;20049;-72
2023/06/26 08:37:10;;;;;;;10.63;5.15;;;;;;;24.53;75.61;100924.25;6275312;28;20358;-72
2023/06/26 08:40:13;;;;;;;6.80;4.32;;;;;;;24.54;75.63;100942.06;6275444;28;20064;-72
2023/06/26 08:43:14;;;;;;;6.70;4.45;;;;;;;24.61;75.74;100939.53;6274611;28;20048;-72
2023/06/26 08:46:17;;;;;;;8.02;5.25;;;;;;;24.65;76.12;100948.94;6261540;28;20366;-72
2023/06/26 08:49:22;;;;;;;9.68;4.40;;;;;;;24.63;77.65;100950.97;6250660;28;20057;-73
2023/06/26 08:52:24;;;;;;;7.18;5.07;;;;;;;24.58;77.23;100939.06;6249835;28;20187;-73
2023/06/26 08:55:28;;;;;;;8.05;4.70;;;;;;;24.57;78.75;100940.03;6250505;28;20469;-73
2023/06/26 08:58:29;;;;;;;7.43;4.80;;;;;;;24.65;78.97;100951.63;6250282;28;20060;-73
2023/06/26 09:01:33;;;;;;;8.73;5.45;;;;;;;24.64;79.31;100959.88;6273618;28;20067;-73
2023/06/26 09:04:35;;;;;;;7.97;5.47;;;;;;;24.57;82.22;100970.44;6266870;28;20052;-72
2023/06/26 09:07:37;;;;;;;8.23;5.90;;;;;;;24.49;80.59;100973.97;6250724;28;20052;-73
2023/06/26 09:10:38;;;;;;;9.07;5.40;;;;;;;24.39;81.34;100980.50;6249680;28;20053;-73
2023/06/26 09:13:40;;;;;;;12.98;6.43;;;;;;;24.22;82.37;100977.75;6249997;28;20045;-72
2023/06/26 09:16:43;;;;;;;9.95;7.10;;;;;;;24.11;84.27;100987.97;6250289;28;20595;-72
2023/06/26 09:19:46;;;;;;;13.40;9.57;;;;;;;23.91;82.91;100992.78;6250098;28;20441;-72
2023/06/26 09:22:49;;;;;;;15.02;9.10;;;;;;;23.77;83.83;100995.06;6249415;28;20350;-73
2023/06/26 09:25:52;;;;;;;14.10;8.75;;;;;;;23.58;91.45;101015.94;6250081;28;20160;-72
2023/06/26 09:28:54;;;;;;;13.30;8.57;;;;;;;22.99;100.00;101029.13;6250082;28;20449;-77
2023/06/26 09:32:00;;;;;;;15.00;8.20;;;;;;;22.50;100.00;101048.25;6249126;28;20108;-73
2023/06/26 09:35:03;;;;;;;11.63;7.63;;;;;;;22.20;100.00;101054.75;6250065;28;20061;-73
2023/06/26 09:38:05;;;;;;;13.35;7.20;;;;;;;21.93;100.00;101074.31;6249980;28;20128;-73
2023/06/26 09:41:06;;;;;;;11.05;6.50;;;;;;;21.85;100.00;101087.59;6249511;28;20045;-73
2023/06/26 09:44:08;;;;;;;11.32;6.70;;;;;;;21.81;100.00;101077.34;6249610;28;20045;-73
2023/06/26 09:47:11;;;;;;;12.88;6.57;;;;;;;21.78;100.00;101086.50;6249704;28;20053;-73
2023/06/26 09:50:22;;;;;;;8.63;5.82;;;;;;;21.81;100.00;101085.38;6249822;28;20121;-73
2023/06/26 09:53:23;;;;;;;10.48;6.00;;;;;;;21.82;100.00;101079.88;6251706;28;20049;-73
2023/06/26 09:56:25;;;;;;;13.27;6.18;;;;;;;22.03;100.00;101069.78;6254325;28;20053;-73
2023/06/26 09:59:27;;;;;;;12.00;6.15;;;;;;;22.18;100.00;101074.66;6254147;28;20232;-73
2023/06/26 10:02:29;;;;;;;10.95;6.00;;;;;;;22.36;100.00;101091.63;6253612;28;20045;-73
2023/06/26 10:05:31;;;;;;;10.95;5.88;;;;;;;22.43;100.00;101091.84;6254188;28;20049;-74
2023/06/26 10:08:35;;;;;;;10.23;6.22;;;;;;;22.32;100.00;101079.50;6253875;28;20045;-73
2023/06/26 10:11:41;;;;;;;11.15;5.13;;;;;;;22.42;100.00;101082.13;6253250;28;20041;-73
2023/06/26 10:14:43;;;;;;;13.27;5.85;;;;;;;22.60;100.00;101088.34;6254001;28;20049;-73
2023/06/26 10:17:48;;;;;;;9.07;5.85;;;;;;;22.72;100.00;101080.94;6253810;28;20045;-73
2023/06/26 10:20:52;;;;;;;8.90;5.20;;;;;;;22.82;100.00;101092.44;6253262;28;20403;-75
2023/06/26 10:23:54;;;;;;;12.07;6.40;;;;;;;22.77;100.00;101090.22;6253521;28;20041;-73
2023/06/26 10:27:02;;;;;;;13.32;5.57;;;;;;;22.82;100.00;101092.44;6253735;28;20048;-73
2023/06/26 10:30:10;;;;;;;9.68;4.60;;;;;;;22.99;100.00;101088.09;6253555;28;20050;-72
2023/06/26 10:33:13;;;;;;;9.02;4.53;;;;;;;23.13;100.00;101084.88;6253102;28;20053;-72
2023/06/26 10:36:15;;;;;;;9.02;5.30;;;;;;;23.18;100.00;101089.75;6253223;28;20377;-73
2023/06/26 10:39:18;;;;;;;8.30;4.82;;;;;;;23.11;100.00;101084.16;6253554;28;20438;-72
2023/06/26 10:42:21;;;;;;;10.57;4.93;;;;;;;23.03;100.00;101101.03;6252479;28;20431;-73
2023/06/26 10:45:22;;;;;;;10.20;3.33;;;;;;;22.86;95.96;101101.00;6253024;28;20046;-71
2023/06/26 10:48:30;;;;;;;6.68;3.45;;;;;;;22.77;94.52;101095.56;6253142;28;20064;-72
2023/06/26 10:51:32;;;;;;;6.97;3.72;;;;;;;22.72;94.62;101111.25;6252375;28;20053;-72
2023/06/26 10:54:33;;;;;;;6.53;3.53;;;;;;;22.71;91.17;101108.72;6253123;28;20052;-72
2023/06/26 10:57:36;;;;;;;8.90;3.90;;;;;;;22.54;89.02;101121.94;6260839;28;20131;-73
2023/06/26 11:00:38;;;;;;;5.07;2.60;;;;;;;22.54;87.54;101119.28;6277161;28;20056;-73
2023/06/26 11:03:42;;;;;;;7.55;2.85;;;;;;;22.70;89.07;101109.72;6259401;28;20357;-72
2023/06/26 11:06:48;;;;;;;4.60;2.65;;;;;;;22.84;85.74;101119.06;6252686;28;20050;-72
2023/06/26 11:09:57;;;;;;;4.80;2.40;;;;;;;22.78;85.26;101133.91;6254355;28;20065;-72
2023/06/26 11:12:58;;;;;;;6.03;2.67;;;;;;;22.68;85.22;101125.94;6276545;28;20060;-72
2023/06/26 11:16:02;;;;;;;4.43;2.50;;;;;;;22.64;85.92;101129.94;6277106;28;20048;-72
2023/06/26 11:19:05;;;;;;;5.10;2.35;;;;;;;22.73;85.53;101131.69;6277273;28;20350;-73
2023/06/26 11:22:06;;;;;;;3.60;2.20;;;;;;;22.87;85.91;101134.84;6272330;28;20049;-73
2023/06/26 11:25:10;;;;;;;4.88;2.13;;;;;;;22.87;83.51;101146.41;6252043;28;20335;-73
2023/06/26 11:28:11;;;;;;;9.57;1.95;;;;;;;22.82;79.38;101129.94;6252092;28;20331;-73
2023/06/26 11:31:25;;;;;;;4.40;1.92;;;;;;;22.73;80.37;101136.22;6251367;28;20361;-72
2023/06/26 11:34:30;;;;;;;5.95;2.17;;;;;;;22.79;81.26;101130.25;6252098;28;20431;-72
2023/06/26 11:37:32;;;;;;;3.80;1.60;;;;;;;22.83;78.21;101142.34;6251894;28;20057;-73
2023/06/26 11:40:35;;;;;;;3.42;1.77;;;;;;;22.97;75.96;101130.28;6251462;28;20046;-72
2023/06/26 11:43:37;;;;;;;4.20;1.80;;;;;;;22.99;76.53;101136.34;6251501;28;20042;-73
2023/06/26 11:46:38;;;;;;;4.30;2.20;;;;;;;23.12;77.24;101134.13;6251984;28;20595;-72
2023/06/26 11:49:43;;;;;;;4.68;2.05;;;;;;;23.28;73.78;101139.63;6251779;28;20346;-72
2023/06/26 11:52:44;;;;;;;4.03;1.90;;;;;;;23.55;75.93;101127.09;6251093;28;20045;-72
2023/06/26 11:55:46;;;;;;;4.38;1.70;;;;;;;23.68;74.01;101124.03;6251366;28;20049;-71
2023/06/26 11:58:58;;;;;;;5.00;1.85;;;;;;;23.81;71.51;101119.06;6251598;28;20445;-72
2023/06/26 12:02:00;;;;;;;4.05;1.50;;;;;;;24.23;74.99;101119.09;6250838;28;20049;-72
2023/06/26 12:05:03;;;;;;;3.60;1.40;;;;;;;24.40;67.56;101117.38;6251151;28;20353;-72
2023/06/26 12:08:06;;;;;;;3.15;1.60;;;;;;;24.59;67.56;101129.69;6251219;28;20045;-72
2023/06/26 12:11:08;;;;;;;6.93;2.10;;;;;;;24.57;63.24;101136.22;6250831;28;20053;-73
2023/06/26 12:14:10;;;;;;;2.85;1.40;;;;;;;24.55;64.33;101137.22;6250948;28;20064;-73
2023/06/26 12:17:13;;;;;;;1.27;1.13;;;;;;;24.79;66.56;101139.13;6250959;28;20049;-71
2023/06/26 12:20:23;;;;;;;2.70;1.33;;;;;;;25.04;61.50;101153.47;6251207;28;20354;-73
2023/06/26 12:23:32;;;;;;;2.88;1.45;;;;;;;24.85;62.31;101143.03;6250063;28;20052;-73
2023/06/26 12:26:35;;;;;;;3.88;1.33;;;;;;;24.68;65.02;101152.03;6266932;28;20045;-73
2023/06/26 12:29:37;;;;;;;5.95;1.58;;;;;;;24.46;66.19;101157.00;6275705;28;20045;-73
2023/06/26 12:32:38;;;;;;;3.00;1.20;;;;;;;24.42;69.04;101163.72;6274972;28;20044;-71
2023/06/26 12:35:42;;;;;;;2.05;1.17;;;;;;;24.72;68.77;101159.63;6275302;28;20048;-71
2023/06/26 12:38:46;;;;;;;2.80;1.40;;;;;;;24.82;65.53;101154.09;6275459;28;20049;-71
2023/06/26 12:41:48;;;;;;;3.28;1.10;;;;;;;24.96;66.57;101172.28;6274541;28;20080;-71
2023/06/26 12:44:50;;;;;;;5.05;1.27;;;;;;;25.03;65.35;101162.53;6275126;28;20045;-72
2023/06/26 12:47:52;;;;;;;2.42;1.23;;;;;;;25.32;63.12;101171.16;6275195;28;20452;-75
2023/06/26 12:50:55;;;;;;;4.25;1.55;;;;;;;25.46;64.96;101165.94;6274723;28;20080;-72
2023/06/26 12:53:57;;;;;;;3.20;1.30;;;;;;;25.30;62.84;101155.19;6275135;28;20049;-72
2023/06/26 12:56:58;;;;;;;4.88;1.48;;;;;;;25.45;62.52;101158.06;6275102;28;20364;-73
2023/06/26 13:00:00;;;;;;;5.75;2.10;;;;;;;25.68;60.16;101164.41;6275043;28;20048;-72
2023/06/26 13:03:02;;;;;;;1.77;1.30;;;;;;;25.62;60.60;101159.72;6274525;28;20081;-72
2023/06/26 13:06:05;;;;;;;2.58;1.00;;;;;;;25.39;57.90;101156.03;6275124;28;20539;-72
2023/06/26 13:09:06;;;;;;;2.20;0.98;;;;;;;25.16;61.80;101162.06;6274818;28;20052;-72
2023/06/26 13:12:08;;;;;;;1.25;1.00;;;;;;;24.75;58.03;101153.94;6274447;28;20442;-74
2023/06/26 13:15:11;;;;;;;2.00;1.00;;;;;;;24.76;61.41;101158.28;6274733;28;20037;-71
2023/06/26 13:18:12;;;;;;;1.42;1.00;;;;;;;24.84;59.04;101157.44;6275036;28;20059;-73
2023/06/26 13:21:16;;;;;;;3.63;1.30;;;;;;;24.87;58.33;101151.75;6274090;28;20330;-72
2023/06/26 13:24:17;;;;;;;1.85;0.80;;;;;;;25.06;57.92;101154.13;6274747;28;20045;-72
2023/06/26 13:27:18;;;;;;;3.50;1.17;;;;;;;25.16;55.93;101155.84;6275908;28;20056;-72
2023/06/26 13:30:20;;;;;;;5.45;1.10;;;;;;;25.22;57.59;101161.41;6279911;28;20045;-72
2023/06/26 13:33:25;;;;;;;3.42;1.58;;;;;;;24.96;56.14;101168.75;6278902;28;20052;-72
2023/06/26 13:36:28;;;;;;;1.45;0.90;;;;;;;25.06;60.07;101175.63;6279729;28;20051;-71
2023/06/26 13:39:29;;;;;;;2.35;0.80;;;;;;;24.83;58.96;101177.28;6279586;28;20045;-72
2023/06/26 13:42:30;;;;;;;2.75;0.93;;;;;;;24.59;58.70;101175.38;6278902;28;20051;-71
2023/06/26 13:45:32;;;;;;;2.97;0.93;;;;;;;24.38;59.74;101177.63;6279167;28;20369;-72
2023/06/26 13:48:33;;;;;;;1.85;0.90;;;;;;;24.21;59.85;101188.28;6279297;28;20053;-72
2023/06/26 13:51:36;;;;;;;1.77;0.93;;;;;;;24.02;63.68;101189.31;6278492;28;20045;-72
2023/06/26 13:54:39;;;;;;;1.33;0.70;;;;;;;24.00;62.83;101182.44;6279006;28;20049;-72
2023/06/26 13:57:41;;;;;;;0.73;0.70;;;;;;;24.15;61.05;101188.06;6279306;28;20051;-72
2023/06/26 14:00:44;;;;;;;1.05;0.82;;;;;;;24.36;61.39;101175.06;6278349;28;20044;-73